地図

経路データ

SID SEASON NUMBER BASIN SUBBASIN NAME ISO_TIME NATURE LAT LON WMO_WIND WMO_PRES WMO_AGENCY TRACK_TYPE DIST2LAND LANDFALL IFLAG USA_AGENCY USA_ATCF_ID USA_LAT USA_LON USA_RECORD USA_STATUS USA_WIND USA_PRES USA_SSHS USA_R34_NE USA_R34_SE USA_R34_SW USA_R34_NW USA_R50_NE USA_R50_SE USA_R50_SW USA_R50_NW USA_R64_NE USA_R64_SE USA_R64_SW USA_R64_NW USA_POCI USA_ROCI USA_RMW USA_EYE TOKYO_LAT TOKYO_LON TOKYO_GRADE TOKYO_WIND TOKYO_PRES TOKYO_R50_DIR TOKYO_R50_LONG TOKYO_R50_SHORT TOKYO_R30_DIR TOKYO_R30_LONG TOKYO_R30_SHORT TOKYO_LAND CMA_LAT CMA_LON CMA_CAT CMA_WIND CMA_PRES HKO_LAT HKO_LON HKO_CAT HKO_WIND HKO_PRES NEWDELHI_LAT NEWDELHI_LON NEWDELHI_GRADE NEWDELHI_WIND NEWDELHI_PRES NEWDELHI_CI NEWDELHI_DP NEWDELHI_POCI REUNION_LAT REUNION_LON REUNION_TYPE REUNION_WIND REUNION_PRES REUNION_TNUM REUNION_CI REUNION_RMW REUNION_R34_NE REUNION_R34_SE REUNION_R34_SW REUNION_R34_NW REUNION_R50_NE REUNION_R50_SE REUNION_R50_SW REUNION_R50_NW REUNION_R64_NE REUNION_R64_SE REUNION_R64_SW REUNION_R64_NW BOM_LAT BOM_LON BOM_TYPE BOM_WIND BOM_PRES BOM_TNUM BOM_CI BOM_RMW BOM_R34_NE BOM_R34_SE BOM_R34_SW BOM_R34_NW BOM_R50_NE BOM_R50_SE BOM_R50_SW BOM_R50_NW BOM_R64_NE BOM_R64_SE BOM_R64_SW BOM_R64_NW BOM_ROCI BOM_POCI BOM_EYE BOM_POS_METHOD BOM_PRES_METHOD NADI_LAT NADI_LON NADI_CAT NADI_WIND NADI_PRES WELLINGTON_LAT WELLINGTON_LON WELLINGTON_WIND WELLINGTON_PRES DS824_LAT DS824_LON DS824_STAGE DS824_WIND DS824_PRES TD9636_LAT TD9636_LON TD9636_STAGE TD9636_WIND TD9636_PRES TD9635_LAT TD9635_LON TD9635_WIND TD9635_PRES TD9635_ROCI NEUMANN_LAT NEUMANN_LON NEUMANN_CLASS NEUMANN_WIND NEUMANN_PRES MLC_LAT MLC_LON MLC_CLASS MLC_WIND MLC_PRES USA_GUST BOM_GUST BOM_GUST_PER REUNION_GUST REUNION_GUST_PER USA_SEAHGT USA_SEARAD_NE USA_SEARAD_SE USA_SEARAD_SW USA_SEARAD_NW STORM_SPEED STORM_DIR
1981269N08322 1981 87 NA NA NOT_NAMED 1981-09-26 00:00:00 TS 8.00000 -38.0000 20 hurdat_atl main 1237 1231 O_____________ hurdat_atl AL191981 8.00000 -38.0000 TD 20 -1 10 277
1981269N08322 1981 87 NA NA NOT_NAMED 1981-09-26 03:00:00 TS 8.06262 -38.5001 main 1241 1236 P_____________ AL191981 8.06262 -38.5001 TD 20 -1 10 281
1981269N08322 1981 87 NA NA NOT_NAMED 1981-09-26 06:00:00 TS 8.20000 -39.0000 20 hurdat_atl main 1247 1246 O_____________ hurdat_atl AL191981 8.20000 -39.0000 TD 20 -1 11 291
1981269N08322 1981 87 NA NA NOT_NAMED 1981-09-26 09:00:00 TS 8.44994 -39.4999 main 1260 1260 P_____________ AL191981 8.44994 -39.4999 TD 22 -1 11 297
1981269N08322 1981 87 NA NA NOT_NAMED 1981-09-26 12:00:00 TS 8.70000 -40.0000 25 hurdat_atl main 1265 1253 O_____________ hurdat_atl AL191981 8.70000 -40.0000 TD 25 -1 11 291
1981269N08322 1981 87 NA NA NOT_NAMED 1981-09-26 15:00:00 TS 8.82993 -40.5001 main 1253 1243 P_____________ AL191981 8.82993 -40.5001 TD 25 -1 10 281
1981269N08322 1981 87 NA NA NOT_NAMED 1981-09-26 18:00:00 TS 8.90000 -41.0000 25 hurdat_atl main 1243 1199 O_____________ hurdat_atl AL191981 8.90000 -41.0000 TD 25 -1 10 276
1981269N08322 1981 87 NA NA NOT_NAMED 1981-09-26 21:00:00 TS 8.94243 -41.5001 main 1199 1154 P_____________ AL191981 8.94243 -41.5001 TD 27 -1 10 276
1981269N08322 1981 87 NA NA NOT_NAMED 1981-09-27 00:00:00 TS 9.00000 -42.0000 30 hurdat_atl main 1154 1111 O_____________ hurdat_atl AL191981 9.00000 -42.0000 TD 30 -1 10 281
1981269N08322 1981 87 NA NA NOT_NAMED 1981-09-27 03:00:00 TS 9.13493 -42.5000 main 1111 1074 P_____________ AL191981 9.13493 -42.5000 TD 30 -1 10 287
1981269N08322 1981 87 NA NA NOT_NAMED 1981-09-27 06:00:00 TS 9.30000 -43.0000 30 hurdat_atl main 1074 1033 O_____________ hurdat_atl AL191981 9.30000 -43.0000 TD 30 -1 10 287
1981269N08322 1981 87 NA NA NOT_NAMED 1981-09-27 09:00:00 TS 9.44243 -43.5001 main 1033 1001 P_____________ AL191981 9.44243 -43.5001 TD 30 -1 10 287
1981269N08322 1981 87 NA NA NOT_NAMED 1981-09-27 12:00:00 TS 9.60000 -44.0000 30 hurdat_atl main 1001 971 O_____________ hurdat_atl AL191981 9.60000 -44.0000 TD 30 -1 11 290
1981269N08322 1981 87 NA NA NOT_NAMED 1981-09-27 15:00:00 TS 9.80743 -44.5000 main 971 944 P_____________ AL191981 9.80743 -44.5000 TD 30 -1 11 292
1981269N08322 1981 87 NA NA NOT_NAMED 1981-09-27 18:00:00 TS 10.0000 -45.0000 30 hurdat_atl main 944 912 O_____________ hurdat_atl AL191981 10.0000 -45.0000 TD 30 -1 10 286
1981269N08322 1981 87 NA NA NOT_NAMED 1981-09-27 21:00:00 TS 10.0924 -45.5002 main 912 882 P_____________ AL191981 10.0924 -45.5002 TD 30 -1 10 281
1981269N08322 1981 87 NA NA NOT_NAMED 1981-09-28 00:00:00 TS 10.2000 -46.0000 30 hurdat_atl main 882 864 O_____________ hurdat_atl AL191981 10.2000 -46.0000 TD 30 -1 10 290
1981269N08322 1981 87 NA NA NOT_NAMED 1981-09-28 03:00:00 TS 10.4424 -46.4999 main 864 856 P_____________ AL191981 10.4424 -46.4999 TD 30 -1 11 297
1981269N08322 1981 87 NA NA NOT_NAMED 1981-09-28 06:00:00 TS 10.7000 -47.0000 30 hurdat_atl main 859 845 O_____________ hurdat_atl AL191981 10.7000 -47.0000 TD 30 -1 11 293
1981269N08322 1981 87 NA NA NOT_NAMED 1981-09-28 09:00:00 TS 10.8649 -47.5001 main 849 823 P_____________ AL191981 10.8649 -47.5001 TD 30 -1 10 287
1981269N08322 1981 87 NA NA NOT_NAMED 1981-09-28 12:00:00 TS 11.0000 -48.0000 30 hurdat_atl main 823 800 O_____________ hurdat_atl AL191981 11.0000 -48.0000 TD 30 -1 10 285
1981269N08322 1981 87 NA NA NOT_NAMED 1981-09-28 15:00:00 TS 11.1349 -48.5001 main 800 785 P_____________ AL191981 11.1349 -48.5001 TD 30 -1 10 287
1981269N08322 1981 87 NA NA NOT_NAMED 1981-09-28 18:00:00 TS 11.3000 -49.0000 30 hurdat_atl main 789 783 O_____________ hurdat_atl AL191981 11.3000 -49.0000 TD 30 -1 11 293
1981269N08322 1981 87 NA NA NOT_NAMED 1981-09-28 21:00:00 TS 11.5574 -49.4999 main 793 783 P_____________ AL191981 11.5574 -49.4999 TD 30 -1 11 297
1981269N08322 1981 87 NA NA NOT_NAMED 1981-09-29 00:00:00 TS 11.8000 -50.0000 30 hurdat_atl main 790 781 O_____________ hurdat_atl AL191981 11.8000 -50.0000 TD 30 -1 10 290
1981269N08322 1981 87 NA NA NOT_NAMED 1981-09-29 03:00:00 TS 11.9074 -50.5002 main 781 768 P_____________ AL191981 11.9074 -50.5002 TD 30 -1 10 282
1981269N08322 1981 87 NA NA NOT_NAMED 1981-09-29 06:00:00 TS 12.0000 -51.0000 30 hurdat_atl main 768 758 O_____________ hurdat_atl AL191981 12.0000 -51.0000 TD 30 -1 10 285
1981269N08322 1981 87 NA NA NOT_NAMED 1981-09-29 09:00:00 TS 12.1698 -51.4851 main 765 757 P_____________ AL191981 12.1698 -51.4851 TD 30 -1 11 292
1981269N08322 1981 87 NA NA NOT_NAMED 1981-09-29 12:00:00 TS 12.4000 -52.0000 30 hurdat_atl main 767 763 O_____________ hurdat_atl AL191981 12.4000 -52.0000 TD 30 -1 12 295
1981269N08322 1981 87 NA NA NOT_NAMED 1981-09-29 15:00:00 TS 12.6699 -52.5702 main 781 779 P_____________ AL191981 12.6699 -52.5702 TD 30 -1 13 297
1981269N08322 1981 87 NA NA NOT_NAMED 1981-09-29 18:00:00 TS 13.0000 -53.2000 30 hurdat_atl main 802 801 O_____________ hurdat_atl AL191981 13.0000 -53.2000 TD 30 -1 15 300
1981269N08322 1981 87 NA NA NOT_NAMED 1981-09-29 21:00:00 TS 13.4075 -53.8998 main 822 777 P_____________ AL191981 13.4075 -53.8998 TD 30 -1 16 300
1981269N08322 1981 87 NA NA NOT_NAMED 1981-09-30 00:00:00 TS 13.8000 -54.6000 30 hurdat_atl main 777 730 O_____________ hurdat_atl AL191981 13.8000 -54.6000 TD 30 -1 14 297
1981269N08322 1981 87 NA NA NOT_NAMED 1981-09-30 03:00:00 TS 14.0572 -55.2155 main 736 693 P_____________ AL191981 14.0572 -55.2155 TD 30 -1 13 293
1981269N08322 1981 87 NA NA NOT_NAMED 1981-09-30 06:00:00 TS 14.3000 -55.8000 30 hurdat_atl main 693 670 O_____________ hurdat_atl AL191981 14.3000 -55.8000 TD 30 -1 13 298
1981269N08322 1981 87 NA NA NOT_NAMED 1981-09-30 09:00:00 TS 14.6723 -56.3998 main 670 647 P_____________ AL191981 14.6723 -56.3998 TD 30 -1 14 301
1981269N08322 1981 87 NA NA NOT_NAMED 1981-09-30 12:00:00 TS 15.0000 -57.0000 30 hurdat_atl main 648 621 O_____________ hurdat_atl AL191981 15.0000 -57.0000 TD 30 -1 12 291
1981269N08322 1981 87 NA NA NOT_NAMED 1981-09-30 15:00:00 TS 15.0996 -57.5708 main 615 588 P_____________ AL191981 15.0996 -57.5708 TD 30 -1 12 280
1981269N08322 1981 87 NA NA NOT_NAMED 1981-09-30 18:00:00 TS 15.2000 -58.2000 30 hurdat_atl main 588 577 O_____________ hurdat_atl AL191981 15.2000 -58.2000 TD 30 -1 15 288
1981269N08322 1981 87 NA NA NOT_NAMED 1981-09-30 21:00:00 TS 15.5503 -58.9992 main 589 582 P_____________ AL191981 15.5503 -58.9992 TD 30 -1 17 294
1981269N08322 1981 87 NA NA NOT_NAMED 1981-10-01 00:00:00 TS 15.9000 -59.8000 30 hurdat_atl main 596 592 O_____________ hurdat_atl AL191981 15.9000 -59.8000 TD 30 -1 15 289
1981269N08322 1981 87 NA CS NOT_NAMED 1981-10-01 03:00:00 TS 16.0220 -60.4231 main 596 542 P_____________ AL191981 16.0220 -60.4231 TD 30 -1 12 280
1981269N08322 1981 87 NA CS NOT_NAMED 1981-10-01 06:00:00 TS 16.1000 -61.0000 30 hurdat_atl main 542 480 O_____________ hurdat_atl AL191981 16.1000 -61.0000 TD 30 -1 12 280
1981269N08322 1981 87 NA CS NOT_NAMED 1981-10-01 09:00:00 TS 16.2401 -61.6727 main 470 398 P_____________ AL191981 16.2401 -61.6727 TD 30 -1 13 288
1981269N08322 1981 87 NA CS NOT_NAMED 1981-10-01 12:00:00 TS 16.5000 -62.3000 30 hurdat_atl main 398 330 O_____________ hurdat_atl AL191981 16.5000 -62.3000 TD 30 -1 13 303
1981269N08322 1981 87 NA CS NOT_NAMED 1981-10-01 15:00:00 TS 16.9247 -62.7803 main 330 265 P_____________ AL191981 16.9247 -62.7803 TD 30 -1 13 319
1981269N08322 1981 87 NA CS NOT_NAMED 1981-10-01 18:00:00 TS 17.5000 -63.2000 30 hurdat_atl main 265 211 O_____________ hurdat_atl AL191981 17.5000 -63.2000 TD 30 -1 15 327
1981269N08322 1981 87 NA CS NOT_NAMED 1981-10-01 21:00:00 TS 18.2074 -63.6498 main 211 164 P_____________ AL191981 18.2074 -63.6498 TD 30 -1 16 329
1981269N08322 1981 87 NA CS NOT_NAMED 1981-10-02 00:00:00 TS 18.9000 -64.1000 30 hurdat_atl main 167 153 O_____________ hurdat_atl AL191981 18.9000 -64.1000 TD 30 -1 14 324
1981269N08322 1981 87 NA NA NOT_NAMED 1981-10-02 03:00:00 TS 19.3648 -64.5433 main 160 153 P_____________ AL191981 19.3648 -64.5433 TD 30 -1 12 317
1981269N08322 1981 87 NA NA NOT_NAMED 1981-10-02 06:00:00 TS 19.8000 -65.0000 30 hurdat_atl main 168 168 O_____________ hurdat_atl AL191981 19.8000 -65.0000 TD 30 -1 14 314
1981269N08322 1981 87 NA NA NOT_NAMED 1981-10-02 09:00:00 TS 20.3554 -65.6185 main 223 223 P_____________ AL191981 20.3554 -65.6185 TD 30 -1 15 322
1981269N08322 1981 87 NA NA NOT_NAMED 1981-10-02 12:00:00 TS 21.0000 -66.0000 30 hurdat_atl main 290 290 O_____________ hurdat_atl AL191981 21.0000 -66.0000 TD 30 -1 14 353
1981269N08322 1981 87 NA NA NOT_NAMED 1981-10-02 15:00:00 TS 21.7275 -65.7863 main 369 369 P_____________ AL191981 21.7275 -65.7863 TD 30 -1 16 23
1981269N08322 1981 87 NA NA NOT_NAMED 1981-10-02 18:00:00 TS 22.5000 -65.3000 30 hurdat_atl main 459 459 O_____________ hurdat_atl AL191981 22.5000 -65.3000 TD 30 -1 18 28
1981269N08322 1981 87 NA NA NOT_NAMED 1981-10-02 21:00:00 TS 23.2650 -64.8999 main 552 552 P_____________ AL191981 23.2650 -64.8999 TD 30 -1 17 26
1981269N08322 1981 87 NA NA NOT_NAMED 1981-10-03 00:00:00 TS 24.0000 -64.5000 30 hurdat_atl main 636 636 O_____________ hurdat_atl AL191981 24.0000 -64.5000 TD 30 -1 15 27
1981269N08322 1981 87 NA NA NOT_NAMED 1981-10-03 03:00:00 TS 24.6348 -64.1490 main 710 710 P_____________ AL191981 24.6348 -64.1490 TD 30 -1 15 26
1981269N08322 1981 87 NA NA NOT_NAMED 1981-10-03 06:00:00 TS 25.3000 -63.8000 30 hurdat_atl main 793 793 O_____________ hurdat_atl AL191981 25.3000 -63.8000 TD 30 -1 16 22
1981269N08322 1981 87 NA NA NOT_NAMED 1981-10-03 09:00:00 TS 26.1117 -63.4731 main 887 887 P_____________ AL191981 26.1117 -63.4731 TD 30 -1 19 23
1981269N08322 1981 87 NA NA NOT_NAMED 1981-10-03 12:00:00 TS 27.0000 -63.0000 30 hurdat_atl main 997 997 O_____________ hurdat_atl AL191981 27.0000 -63.0000 TD 30 -1 21 32
1981269N08322 1981 87 NA NA NOT_NAMED 1981-10-03 15:00:00 TS 27.9156 -62.2110 main 1117 1117 P_____________ AL191981 27.9156 -62.2110 TD 30 -1 24 40
1981269N08322 1981 87 NA NA NOT_NAMED 1981-10-03 18:00:00 TS 28.8000 -61.3000 30 hurdat_atl main 1241 1241 O_____________ hurdat_atl AL191981 28.8000 -61.3000 TD 30 -1 22 42
1981269N08322 1981 87 NA NA NOT_NAMED 1981-10-03 21:00:00 TS 29.5563 -60.5195 main 1353 1353 P_____________ AL191981 29.5563 -60.5195 TD 27 -1 21 43
1981269N08322 1981 87 NA NA NOT_NAMED 1981-10-04 00:00:00 TS 30.3000 -59.7000 25 hurdat_atl main 1456 1456 O_____________ hurdat_atl AL191981 30.3000 -59.7000 TD 25 -1 22 45
1981269N08322 1981 87 NA NA NOT_NAMED 1981-10-04 03:00:00 TS 31.1351 -58.7221 main 1497 1438 P_____________ AL191981 31.1351 -58.7221 TD 25 -1 24 45
1981269N08322 1981 87 NA NA NOT_NAMED 1981-10-04 06:00:00 TS 32.0000 -57.7000 25 hurdat_atl main 1442 1396 O_____________ hurdat_atl AL191981 32.0000 -57.7000 TD 25 -1 24 44
1981269N08322 1981 87 NA NA NOT_NAMED 1981-10-04 09:00:00 TS 32.8786 -56.7634 main 1391 1354 P_____________ AL191981 32.8786 -56.7634 TD 22 -1 23 43
1981269N08322 1981 87 NA NA NOT_NAMED 1981-10-04 12:00:00 TS 33.7000 -55.8000 20 hurdat_atl main 1357 1315 O_____________ hurdat_atl AL191981 33.7000 -55.8000 TD 20 -1 23 48
1981269N08322 1981 87 NA NA NOT_NAMED 1981-10-04 15:00:00 TS 34.3926 -54.7356 main 1318 1290 P_____________ AL191981 34.3926 -54.7356 TD 20 -1 22 54
1981269N08322 1981 87 NA NA NOT_NAMED 1981-10-04 18:00:00 TS 35.0000 -53.6000 20 hurdat_atl main 1290 O_____________ hurdat_atl AL191981 35.0000 -53.6000 TD 20 -1 22 57

IBTrACS Databaseについて

本データベースは、米国NOAAが公開する1842年以降の世界の熱帯低気圧のベストトラックデータアーカイブInternational Best Track Archive for Climate Stewardship (IBTrACS)を、ウェブで閲覧しやすい形式に変換したものです。

最終更新日:2021-10-21